Terminal Aerodrome Forecast
Issued by NWS

Home | Current Version | Previous Version | Text Only | Print | Product List | Glossary On
Versions: 1 2 3 4 5 6 7 8 9 10 11 12 13 14 15 16 17 18 19 20 21 22 23 24 25 26 27 28 29 30 31 32 33 34 35 36 37 38 39 40 41 42 43 44 45 46 47 48
000
FTUS42 KGSP 041137
TAFHKY
TAF
KHKY 041137Z 0412/0512 23005KT 3SM BR OVC002 WS020/24040KT
      TEMPO 0412/0414 1SM BR
     FM041500 22007KT P6SM OVC003 WS020/23040KT
     FM041600 22011KT P6SM BKN045
     FM050500 23007KT P6SM BKN024
     FM050900 27003KT 6SM -RA BR OVC023=

USA.gov is the U.S. government's official web portal to all federal, state and local government web resources and services.